sensor_id;sensor_type;location;lat;lon;timestamp;temperature;humidity
52575;DHT22;38468;48.114;-1.684;2024-03-23T00:54:09;9.40;70.10
52575;DHT22;38468;48.114;-1.684;2024-03-23T00:56:09;9.30;70.10
52575;DHT22;38468;48.114;-1.684;2024-03-23T00:58:10;9.30;70.10
52575;DHT22;38468;48.114;-1.684;2024-03-23T01:00:11;9.30;70.20
52575;DHT22;38468;48.114;-1.684;2024-03-23T01:02:12;9.30;70.20
52575;DHT22;38468;48.114;-1.684;2024-03-23T01:04:13;9.30;70.20
52575;DHT22;38468;48.114;-1.684;2024-03-23T01:06:13;9.30;70.30
52575;DHT22;38468;48.114;-1.684;2024-03-23T01:08:14;9.20;70.20
52575;DHT22;38468;48.114;-1.684;2024-03-23T01:10:15;9.20;70.20
52575;DHT22;38468;48.114;-1.684;2024-03-23T01:12:16;9.20;70.20
52575;DHT22;38468;48.114;-1.684;2024-03-23T01:14:16;9.10;70.30
52575;DHT22;38468;48.114;-1.684;2024-03-23T01:16:17;9.10;70.30
52575;DHT22;38468;48.114;-1.684;2024-03-23T01:18:19;9.10;70.30
52575;DHT22;38468;48.114;-1.684;2024-03-23T01:20:20;9.10;70.30
52575;DHT22;38468;48.114;-1.684;2024-03-23T01:22:21;9.10;70.40
52575;DHT22;38468;48.114;-1.684;2024-03-23T01:24:21;9.10;70.50
52575;DHT22;38468;48.114;-1.684;2024-03-23T01:26:22;9.10;70.40
52575;DHT22;38468;48.114;-1.684;2024-03-23T01:28:23;9.00;70.30
52575;DHT22;38468;48.114;-1.684;2024-03-23T01:30:24;9.10;70.40
52575;DHT22;38468;48.114;-1.684;2024-03-23T01:32:24;9.10;70.40
52575;DHT22;38468;48.114;-1.684;2024-03-23T01:34:25;9.00;70.30
52575;DHT22;38468;48.114;-1.684;2024-03-23T01:36:26;9.10;70.40
52575;DHT22;38468;48.114;-1.684;2024-03-23T01:38:26;9.10;70.50
52575;DHT22;38468;48.114;-1.684;2024-03-23T01:40:27;9.10;70.50
52575;DHT22;38468;48.114;-1.684;2024-03-23T01:42:31;9.10;70.50
52575;DHT22;38468;48.114;-1.684;2024-03-23T01:44:32;9.10;70.50
52575;DHT22;38468;48.114;-1.684;2024-03-23T01:46:33;9.10;70.40
52575;DHT22;38468;48.114;-1.684;2024-03-23T01:48:34;9.00;70.40
52575;DHT22;38468;48.114;-1.684;2024-03-23T01:50:34;9.00;70.20
52575;DHT22;38468;48.114;-1.684;2024-03-23T01:52:35;9.00;70.20
52575;DHT22;38468;48.114;-1.684;2024-03-23T01:54:36;9.00;70.30
52575;DHT22;38468;48.114;-1.684;2024-03-23T01:56:37;9.00;70.30
52575;DHT22;38468;48.114;-1.684;2024-03-23T01:58:37;8.90;70.30
52575;DHT22;38468;48.114;-1.684;2024-03-23T02:00:38;8.90;70.30
52575;DHT22;38468;48.114;-1.684;2024-03-23T02:02:45;8.90;70.30
52575;DHT22;38468;48.114;-1.684;2024-03-23T02:04:46;8.80;70.20
52575;DHT22;38468;48.114;-1.684;2024-03-23T02:06:47;8.80;70.30
52575;DHT22;38468;48.114;-1.684;2024-03-23T02:08:48;8.80;70.40
52575;DHT22;38468;48.114;-1.684;2024-03-23T02:10:49;8.80;70.30
52575;DHT22;38468;48.114;-1.684;2024-03-23T02:12:50;8.80;70.40
52575;DHT22;38468;48.114;-1.684;2024-03-23T02:14:51;8.80;70.30
52575;DHT22;38468;48.114;-1.684;2024-03-23T02:16:52;8.80;70.40
52575;DHT22;38468;48.114;-1.684;2024-03-23T02:18:52;8.80;70.30
52575;DHT22;38468;48.114;-1.684;2024-03-23T02:20:53;8.70;70.40
52575;DHT22;38468;48.114;-1.684;2024-03-23T02:22:53;8.70;70.30
52575;DHT22;38468;48.114;-1.684;2024-03-23T02:24:54;8.70;70.40
52575;DHT22;38468;48.114;-1.684;2024-03-23T02:26:55;8.60;70.40
52575;DHT22;38468;48.114;-1.684;2024-03-23T02:28:55;8.60;70.40
52575;DHT22;38468;48.114;-1.684;2024-03-23T02:30:56;8.60;70.40
52575;DHT22;38468;48.114;-1.684;2024-03-23T02:32:57;8.60;70.40
52575;DHT22;38468;48.114;-1.684;2024-03-23T02:34:57;8.60;70.50
52575;DHT22;38468;48.114;-1.684;2024-03-23T02:36:58;8.60;70.50
52575;DHT22;38468;48.114;-1.684;2024-03-23T02:38:58;8.50;70.60
52575;DHT22;38468;48.114;-1.684;2024-03-23T02:41:05;8.60;70.60
52575;DHT22;38468;48.114;-1.684;2024-03-23T02:43:06;8.60;70.60
52575;DHT22;38468;48.114;-1.684;2024-03-23T02:45:06;8.50;70.60
52575;DHT22;38468;48.114;-1.684;2024-03-23T02:47:07;8.50;70.60
52575;DHT22;38468;48.114;-1.684;2024-03-23T02:49:08;8.50;70.70
52575;DHT22;38468;48.114;-1.684;2024-03-23T02:51:09;8.60;70.70
52575;DHT22;38468;48.114;-1.684;2024-03-23T02:53:09;8.60;70.70
52575;DHT22;38468;48.114;-1.684;2024-03-23T02:55:10;8.60;70.60
52575;DHT22;38468;48.114;-1.684;2024-03-23T02:57:11;8.60;70.70
52575;DHT22;38468;48.114;-1.684;2024-03-23T02:59:12;8.60;70.80
52575;DHT22;38468;48.114;-1.684;2024-03-23T03:01:12;8.60;70.80
52575;DHT22;38468;48.114;-1.684;2024-03-23T03:03:13;8.60;70.70
52575;DHT22;38468;48.114;-1.684;2024-03-23T03:05:14;8.70;70.80
52575;DHT22;38468;48.114;-1.684;2024-03-23T03:07:14;8.70;70.80
52575;DHT22;38468;48.114;-1.684;2024-03-23T03:09:15;8.70;70.90
52575;DHT22;38468;48.114;-1.684;2024-03-23T03:11:16;8.70;70.90
52575;DHT22;38468;48.114;-1.684;2024-03-23T03:13:16;8.80;70.90
52575;DHT22;38468;48.114;-1.684;2024-03-23T03:15:17;8.80;70.90
52575;DHT22;38468;48.114;-1.684;2024-03-23T03:17:17;8.90;71.00
52575;DHT22;38468;48.114;-1.684;2024-03-23T03:19:19;8.90;71.00
52575;DHT22;38468;48.114;-1.684;2024-03-23T03:21:20;8.80;70.90
52575;DHT22;38468;48.114;-1.684;2024-03-23T03:23:20;8.80;70.90
52575;DHT22;38468;48.114;-1.684;2024-03-23T03:25:21;8.90;70.90
52575;DHT22;38468;48.114;-1.684;2024-03-23T03:27:22;8.90;71.00
52575;DHT22;38468;48.114;-1.684;2024-03-23T03:29:23;8.90;70.90
52575;DHT22;38468;48.114;-1.684;2024-03-23T03:31:24;8.80;71.00
52575;DHT22;38468;48.114;-1.684;2024-03-23T03:33:26;8.90;70.90
52575;DHT22;38468;48.114;-1.684;2024-03-23T03:35:26;8.90;71.00
52575;DHT22;38468;48.114;-1.684;2024-03-23T03:37:27;8.90;71.00
52575;DHT22;38468;48.114;-1.684;2024-03-23T03:39:28;8.80;70.90
52575;DHT22;38468;48.114;-1.684;2024-03-23T03:41:29;8.90;71.00
52575;DHT22;38468;48.114;-1.684;2024-03-23T03:43:29;8.90;70.90
52575;DHT22;38468;48.114;-1.684;2024-03-23T03:45:30;8.90;70.90
52575;DHT22;38468;48.114;-1.684;2024-03-23T03:47:31;8.80;70.90
52575;DHT22;38468;48.114;-1.684;2024-03-23T03:49:31;8.80;70.90
52575;DHT22;38468;48.114;-1.684;2024-03-23T03:51:32;8.80;70.90
52575;DHT22;38468;48.114;-1.684;2024-03-23T03:53:32;8.90;70.90
52575;DHT22;38468;48.114;-1.684;2024-03-23T03:55:33;8.80;70.90
52575;DHT22;38468;48.114;-1.684;2024-03-23T03:57:34;8.70;70.80
52575;DHT22;38468;48.114;-1.684;2024-03-23T03:59:34;8.70;70.90
52575;DHT22;38468;48.114;-1.684;2024-03-23T04:01:35;8.70;71.00
52575;DHT22;38468;48.114;-1.684;2024-03-23T04:03:35;8.70;71.00
52575;DHT22;38468;48.114;-1.684;2024-03-23T04:05:36;8.60;70.90
52575;DHT22;38468;48.114;-1.684;2024-03-23T04:07:37;8.60;71.00
52575;DHT22;38468;48.114;-1.684;2024-03-23T04:09:37;8.70;71.00
52575;DHT22;38468;48.114;-1.684;2024-03-23T04:11:38;8.70;71.10
52575;DHT22;38468;48.114;-1.684;2024-03-23T04:13:38;8.70;71.10
52575;DHT22;38468;48.114;-1.684;2024-03-23T04:15:42;8.70;71.20
52575;DHT22;38468;48.114;-1.684;2024-03-23T04:17:42;8.70;71.10
52575;DHT22;38468;48.114;-1.684;2024-03-23T04:19:44;8.80;71.10
52575;DHT22;38468;48.114;-1.684;2024-03-23T04:21:45;8.70;71.10
52575;DHT22;38468;48.114;-1.684;2024-03-23T04:23:45;8.70;71.10
52575;DHT22;38468;48.114;-1.684;2024-03-23T04:25:46;8.70;71.10
52575;DHT22;38468;48.114;-1.684;2024-03-23T04:27:47;8.70;71.10
52575;DHT22;38468;48.114;-1.684;2024-03-23T04:29:49;8.70;71.10
52575;DHT22;38468;48.114;-1.684;2024-03-23T04:31:49;8.70;71.10
52575;DHT22;38468;48.114;-1.684;2024-03-23T04:33:50;8.70;71.10
52575;DHT22;38468;48.114;-1.684;2024-03-23T04:35:51;8.60;71.00
52575;DHT22;38468;48.114;-1.684;2024-03-23T04:37:51;8.60;71.00
52575;DHT22;38468;48.114;-1.684;2024-03-23T04:40:00;8.60;71.10
52575;DHT22;38468;48.114;-1.684;2024-03-23T04:42:02;8.60;71.10
52575;DHT22;38468;48.114;-1.684;2024-03-23T04:44:03;8.60;71.20
52575;DHT22;38468;48.114;-1.684;2024-03-23T04:46:03;8.60;71.20
52575;DHT22;38468;48.114;-1.684;2024-03-23T04:48:04;8.60;71.20
52575;DHT22;38468;48.114;-1.684;2024-03-23T04:50:05;8.60;71.20
52575;DHT22;38468;48.114;-1.684;2024-03-23T04:52:06;8.50;71.10
52575;DHT22;38468;48.114;-1.684;2024-03-23T04:54:06;8.50;71.10
52575;DHT22;38468;48.114;-1.684;2024-03-23T04:56:07;8.50;71.10
52575;DHT22;38468;48.114;-1.684;2024-03-23T04:58:08;8.50;71.10
52575;DHT22;38468;48.114;-1.684;2024-03-23T05:00:09;8.40;71.20
52575;DHT22;38468;48.114;-1.684;2024-03-23T05:02:17;8.40;71.30
52575;DHT22;38468;48.114;-1.684;2024-03-23T05:04:17;8.40;71.20
52575;DHT22;38468;48.114;-1.684;2024-03-23T05:06:18;8.40;71.20
52575;DHT22;38468;48.114;-1.684;2024-03-23T05:08:19;8.40;71.30
52575;DHT22;38468;48.114;-1.684;2024-03-23T05:10:21;8.40;71.30
52575;DHT22;38468;48.114;-1.684;2024-03-23T05:12:22;8.40;71.40
52575;DHT22;38468;48.114;-1.684;2024-03-23T05:14:22;8.40;71.30
52575;DHT22;38468;48.114;-1.684;2024-03-23T05:16:23;8.40;71.20
52575;DHT22;38468;48.114;-1.684;2024-03-23T05:18:23;8.40;71.20
52575;DHT22;38468;48.114;-1.684;2024-03-23T05:20:27;8.40;71.20
52575;DHT22;38468;48.114;-1.684;2024-03-23T05:22:27;8.40;71.30
52575;DHT22;38468;48.114;-1.684;2024-03-23T05:24:28;8.40;71.30
52575;DHT22;38468;48.114;-1.684;2024-03-23T05:26:29;8.40;71.20
52575;DHT22;38468;48.114;-1.684;2024-03-23T05:28:29;8.30;71.20
52575;DHT22;38468;48.114;-1.684;2024-03-23T05:30:30;8.30;71.20
52575;DHT22;38468;48.114;-1.684;2024-03-23T05:32:31;8.30;71.20
52575;DHT22;38468;48.114;-1.684;2024-03-23T05:34:31;8.20;71.20
52575;DHT22;38468;48.114;-1.684;2024-03-23T05:36:32;8.20;71.20
52575;DHT22;38468;48.114;-1.684;2024-03-23T05:38:33;8.10;71.30
52575;DHT22;38468;48.114;-1.684;2024-03-23T05:40:33;8.10;71.30
52575;DHT22;38468;48.114;-1.684;2024-03-23T05:42:37;8.00;71.20
52575;DHT22;38468;48.114;-1.684;2024-03-23T05:44:38;7.90;71.30
52575;DHT22;38468;48.114;-1.684;2024-03-23T05:46:38;7.80;71.40
52575;DHT22;38468;48.114;-1.684;2024-03-23T05:48:39;7.80;71.50
52575;DHT22;38468;48.114;-1.684;2024-03-23T05:50:40;7.70;71.60
52575;DHT22;38468;48.114;-1.684;2024-03-23T05:52:40;7.60;71.80
52575;DHT22;38468;48.114;-1.684;2024-03-23T05:54:44;7.50;71.90
52575;DHT22;38468;48.114;-1.684;2024-03-23T05:56:44;7.50;72.00
52575;DHT22;38468;48.114;-1.684;2024-03-23T05:58:45;7.60;72.00
52575;DHT22;38468;48.114;-1.684;2024-03-23T06:00:46;7.60;72.10
52575;DHT22;38468;48.114;-1.684;2024-03-23T06:02:47;7.60;72.00
52575;DHT22;38468;48.114;-1.684;2024-03-23T06:04:48;7.50;72.10
52575;DHT22;38468;48.114;-1.684;2024-03-23T06:06:48;7.50;72.10
52575;DHT22;38468;48.114;-1.684;2024-03-23T06:08:49;7.50;72.10
52575;DHT22;38468;48.114;-1.684;2024-03-23T06:10:50;7.50;72.30
52575;DHT22;38468;48.114;-1.684;2024-03-23T06:12:51;7.50;72.20
52575;DHT22;38468;48.114;-1.684;2024-03-23T06:14:52;7.50;72.20
52575;DHT22;38468;48.114;-1.684;2024-03-23T06:16:53;7.60;72.20
52575;DHT22;38468;48.114;-1.684;2024-03-23T06:18:54;7.60;72.20
52575;DHT22;38468;48.114;-1.684;2024-03-23T06:20:58;7.70;72.20
52575;DHT22;38468;48.114;-1.684;2024-03-23T06:22:58;7.70;72.20
52575;DHT22;38468;48.114;-1.684;2024-03-23T06:24:59;7.70;72.20
52575;DHT22;38468;48.114;-1.684;2024-03-23T06:27:00;7.70;72.20
52575;DHT22;38468;48.114;-1.684;2024-03-23T06:29:00;7.70;72.20
52575;DHT22;38468;48.114;-1.684;2024-03-23T06:31:01;7.70;72.20
52575;DHT22;38468;48.114;-1.684;2024-03-23T06:33:02;7.60;72.20
52575;DHT22;38468;48.114;-1.684;2024-03-23T06:35:03;7.60;72.30
52575;DHT22;38468;48.114;-1.684;2024-03-23T06:37:08;7.60;72.20
52575;DHT22;38468;48.114;-1.684;2024-03-23T06:39:11;7.50;72.40
52575;DHT22;38468;48.114;-1.684;2024-03-23T06:41:15;7.50;72.30
52575;DHT22;38468;48.114;-1.684;2024-03-23T06:43:16;7.50;72.30
52575;DHT22;38468;48.114;-1.684;2024-03-23T06:45:17;7.50;72.40
52575;DHT22;38468;48.114;-1.684;2024-03-23T06:47:23;7.50;72.50
52575;DHT22;38468;48.114;-1.684;2024-03-23T06:49:24;7.50;72.50
52575;DHT22;38468;48.114;-1.684;2024-03-23T06:51:24;7.60;72.60
52575;DHT22;38468;48.114;-1.684;2024-03-23T06:53:25;7.70;72.60
52575;DHT22;38468;48.114;-1.684;2024-03-23T06:55:26;7.70;72.60
52575;DHT22;38468;48.114;-1.684;2024-03-23T06:57:27;7.80;72.70
52575;DHT22;38468;48.114;-1.684;2024-03-23T06:59:27;7.80;72.60
52575;DHT22;38468;48.114;-1.684;2024-03-23T07:01:28;7.90;72.60
52575;DHT22;38468;48.114;-1.684;2024-03-23T07:03:31;7.90;72.60
52575;DHT22;38468;48.114;-1.684;2024-03-23T07:05:32;7.90;72.60
52575;DHT22;38468;48.114;-1.684;2024-03-23T07:07:33;7.90;72.60
52575;DHT22;38468;48.114;-1.684;2024-03-23T07:09:33;8.00;72.70
52575;DHT22;38468;48.114;-1.684;2024-03-23T07:11:34;8.10;72.80
52575;DHT22;38468;48.114;-1.684;2024-03-23T07:13:34;8.20;72.80
52575;DHT22;38468;48.114;-1.684;2024-03-23T07:15:35;8.30;72.90
52575;DHT22;38468;48.114;-1.684;2024-03-23T07:17:36;8.30;72.80
52575;DHT22;38468;48.114;-1.684;2024-03-23T07:19:36;8.40;72.80
52575;DHT22;38468;48.114;-1.684;2024-03-23T07:21:37;8.40;72.80
52575;DHT22;38468;48.114;-1.684;2024-03-23T07:23:38;8.50;72.80
52575;DHT22;38468;48.114;-1.684;2024-03-23T07:25:38;8.50;72.60
52575;DHT22;38468;48.114;-1.684;2024-03-23T07:27:39;8.50;72.60
52575;DHT22;38468;48.114;-1.684;2024-03-23T07:29:39;8.60;72.60
52575;DHT22;38468;48.114;-1.684;2024-03-23T07:31:40;8.60;72.40
52575;DHT22;38468;48.114;-1.684;2024-03-23T07:33:43;8.70;72.50
52575;DHT22;38468;48.114;-1.684;2024-03-23T07:35:44;8.70;72.60
52575;DHT22;38468;48.114;-1.684;2024-03-23T07:37:45;8.80;72.70
52575;DHT22;38468;48.114;-1.684;2024-03-23T07:39:45;8.90;72.80
52575;DHT22;38468;48.114;-1.684;2024-03-23T07:41:46;9.10;72.90
52575;DHT22;38468;48.114;-1.684;2024-03-23T07:43:48;9.20;72.70
52575;DHT22;38468;48.114;-1.684;2024-03-23T07:45:54;9.30;72.70
52575;DHT22;38468;48.114;-1.684;2024-03-23T07:47:55;9.50;72.90
52575;DHT22;38468;48.114;-1.684;2024-03-23T07:49:56;9.70;73.00
52575;DHT22;38468;48.114;-1.684;2024-03-23T07:51:56;9.80;73.20
52575;DHT22;38468;48.114;-1.684;2024-03-23T07:53:57;10.10;73.40
52575;DHT22;38468;48.114;-1.684;2024-03-23T07:55:59;10.40;73.40
52575;DHT22;38468;48.114;-1.684;2024-03-23T07:58:00;10.60;72.80
52575;DHT22;38468;48.114;-1.684;2024-03-23T08:00:01;10.70;72.70
52575;DHT22;38468;48.114;-1.684;2024-03-23T08:02:01;11.00;72.60
52575;DHT22;38468;48.114;-1.684;2024-03-23T08:04:02;11.30;72.90
52575;DHT22;38468;48.114;-1.684;2024-03-23T08:06:16;11.50;71.20
52575;DHT22;38468;48.114;-1.684;2024-03-23T08:08:17;11.70;71.50
52575;DHT22;38468;48.114;-1.684;2024-03-23T08:10:23;12.00;72.70
52575;DHT22;38468;48.114;-1.684;2024-03-23T08:12:23;12.40;73.20
52575;DHT22;38468;48.114;-1.684;2024-03-23T08:14:24;12.50;71.10
52575;DHT22;38468;48.114;-1.684;2024-03-23T08:16:24;12.80;70.60
52575;DHT22;38468;48.114;-1.684;2024-03-23T08:18:25;12.90;70.60
52575;DHT22;38468;48.114;-1.684;2024-03-23T08:20:26;12.90;69.60
52575;DHT22;38468;48.114;-1.684;2024-03-23T08:22:27;12.80;69.10
52575;DHT22;38468;48.114;-1.684;2024-03-23T08:24:34;12.80;69.80
52575;DHT22;38468;48.114;-1.684;2024-03-23T08:26:34;13.00;69.90
52575;DHT22;38468;48.114;-1.684;2024-03-23T08:28:36;13.10;70.10
52575;DHT22;38468;48.114;-1.684;2024-03-23T08:30:38;13.30;69.70
52575;DHT22;38468;48.114;-1.684;2024-03-23T08:32:38;13.30;68.40
52575;DHT22;38468;48.114;-1.684;2024-03-23T08:34:39;13.20;68.10
52575;DHT22;38468;48.114;-1.684;2024-03-23T08:36:39;13.00;66.30
52575;DHT22;38468;48.114;-1.684;2024-03-23T08:38:40;12.80;65.50
52575;DHT22;38468;48.114;-1.684;2024-03-23T08:40:41;12.70;66.30
52575;DHT22;38468;48.114;-1.684;2024-03-23T08:42:42;12.50;65.60
52575;DHT22;38468;48.114;-1.684;2024-03-23T08:44:42;12.40;66.20
52575;DHT22;38468;48.114;-1.684;2024-03-23T08:46:46;12.40;66.10
52575;DHT22;38468;48.114;-1.684;2024-03-23T08:48:47;12.30;65.80
52575;DHT22;38468;48.114;-1.684;2024-03-23T08:51:05;12.30;65.50
52575;DHT22;38468;48.114;-1.684;2024-03-23T08:53:06;12.20;64.40
52575;DHT22;38468;48.114;-1.684;2024-03-23T08:55:07;12.00;64.20
52575;DHT22;38468;48.114;-1.684;2024-03-23T08:57:08;11.90;63.60
52575;DHT22;38468;48.114;-1.684;2024-03-23T08:59:09;11.70;64.60
52575;DHT22;38468;48.114;-1.684;2024-03-23T09:01:11;11.80;65.30
52575;DHT22;38468;48.114;-1.684;2024-03-23T09:03:15;11.80;65.90
52575;DHT22;38468;48.114;-1.684;2024-03-23T09:05:15;11.90;66.30
52575;DHT22;38468;48.114;-1.684;2024-03-23T09:07:16;12.00;66.30
52575;DHT22;38468;48.114;-1.684;2024-03-23T09:09:17;12.10;66.20
52575;DHT22;38468;48.114;-1.684;2024-03-23T09:11:17;12.10;65.20
52575;DHT22;38468;48.114;-1.684;2024-03-23T09:13:18;12.10;63.90
52575;DHT22;38468;48.114;-1.684;2024-03-23T09:15:19;12.10;65.00
52575;DHT22;38468;48.114;-1.684;2024-03-23T09:17:19;12.10;63.70
52575;DHT22;38468;48.114;-1.684;2024-03-23T09:19:20;12.10;64.00
52575;DHT22;38468;48.114;-1.684;2024-03-23T09:21:21;12.10;64.30
52575;DHT22;38468;48.114;-1.684;2024-03-23T09:23:22;12.30;64.90
52575;DHT22;38468;48.114;-1.684;2024-03-23T09:25:22;12.40;64.40
52575;DHT22;38468;48.114;-1.684;2024-03-23T09:27:23;12.40;64.40
52575;DHT22;38468;48.114;-1.684;2024-03-23T09:29:24;12.40;64.90
52575;DHT22;38468;48.114;-1.684;2024-03-23T09:31:24;12.50;64.00
52575;DHT22;38468;48.114;-1.684;2024-03-23T09:33:25;12.60;64.60
52575;DHT22;38468;48.114;-1.684;2024-03-23T09:35:25;12.60;62.30
52575;DHT22;38468;48.114;-1.684;2024-03-23T09:37:26;12.50;62.10
52575;DHT22;38468;48.114;-1.684;2024-03-23T09:39:27;12.60;64.00
52575;DHT22;38468;48.114;-1.684;2024-03-23T09:41:27;12.70;62.50
52575;DHT22;38468;48.114;-1.684;2024-03-23T09:43:28;12.70;62.00
52575;DHT22;38468;48.114;-1.684;2024-03-23T09:45:29;12.60;62.20
52575;DHT22;38468;48.114;-1.684;2024-03-23T09:47:30;12.50;61.80
52575;DHT22;38468;48.114;-1.684;2024-03-23T09:49:32;12.60;62.80
52575;DHT22;38468;48.114;-1.684;2024-03-23T09:51:37;12.70;62.30
52575;DHT22;38468;48.114;-1.684;2024-03-23T09:53:37;12.80;62.80
52575;DHT22;38468;48.114;-1.684;2024-03-23T09:55:40;12.90;62.90
52575;DHT22;38468;48.114;-1.684;2024-03-23T09:57:41;13.00;63.10
52575;DHT22;38468;48.114;-1.684;2024-03-23T09:59:42;13.10;62.70
52575;DHT22;38468;48.114;-1.684;2024-03-23T10:01:43;13.20;63.00
52575;DHT22;38468;48.114;-1.684;2024-03-23T10:03:47;13.40;62.90
52575;DHT22;38468;48.114;-1.684;2024-03-23T10:05:47;13.50;62.90
52575;DHT22;38468;48.114;-1.684;2024-03-23T10:10:16;13.40;60.40
52575;DHT22;38468;48.114;-1.684;2024-03-23T10:12:17;13.40;60.10
52575;DHT22;38468;48.114;-1.684;2024-03-23T10:14:29;13.50;60.20
52575;DHT22;38468;48.114;-1.684;2024-03-23T10:16:30;13.40;59.70
52575;DHT22;38468;48.114;-1.684;2024-03-23T10:18:30;13.40;59.80
52575;DHT22;38468;48.114;-1.684;2024-03-23T10:20:32;13.50;60.40
52575;DHT22;38468;48.114;-1.684;2024-03-23T10:22:37;13.50;59.70
52575;DHT22;38468;48.114;-1.684;2024-03-23T10:24:40;13.50;57.40
52575;DHT22;38468;48.114;-1.684;2024-03-23T10:26:40;13.50;59.20
52575;DHT22;38468;48.114;-1.684;2024-03-23T10:28:58;13.50;57.50
52575;DHT22;38468;48.114;-1.684;2024-03-23T10:31:11;13.50;58.80
52575;DHT22;38468;48.114;-1.684;2024-03-23T10:33:12;13.50;59.70
52575;DHT22;38468;48.114;-1.684;2024-03-23T10:35:14;13.80;60.30
52575;DHT22;38468;48.114;-1.684;2024-03-23T10:37:15;13.90;58.20
52575;DHT22;38468;48.114;-1.684;2024-03-23T10:39:16;13.90;59.10
52575;DHT22;38468;48.114;-1.684;2024-03-23T10:41:19;14.00;56.40
52575;DHT22;38468;48.114;-1.684;2024-03-23T10:43:19;14.00;56.40
52575;DHT22;38468;48.114;-1.684;2024-03-23T10:45:21;13.90;57.10
52575;DHT22;38468;48.114;-1.684;2024-03-23T10:47:21;14.00;57.80
52575;DHT22;38468;48.114;-1.684;2024-03-23T10:49:22;14.00;57.40
52575;DHT22;38468;48.114;-1.684;2024-03-23T10:51:23;14.00;57.00
52575;DHT22;38468;48.114;-1.684;2024-03-23T10:53:28;14.10;56.80
52575;DHT22;38468;48.114;-1.684;2024-03-23T10:55:29;14.10;56.70
52575;DHT22;38468;48.114;-1.684;2024-03-23T10:57:42;13.90;53.00
52575;DHT22;38468;48.114;-1.684;2024-03-23T10:59:44;13.90;56.10
52575;DHT22;38468;48.114;-1.684;2024-03-23T11:01:58;14.00;54.70
52575;DHT22;38468;48.114;-1.684;2024-03-23T11:03:59;14.00;56.40
52575;DHT22;38468;48.114;-1.684;2024-03-23T11:06:00;13.90;54.10
52575;DHT22;38468;48.114;-1.684;2024-03-23T11:08:01;14.00;56.20
52575;DHT22;38468;48.114;-1.684;2024-03-23T11:10:02;14.10;56.60
52575;DHT22;38468;48.114;-1.684;2024-03-23T11:12:26;14.20;54.90
52575;DHT22;38468;48.114;-1.684;2024-03-23T11:14:27;14.30;54.80
52575;DHT22;38468;48.114;-1.684;2024-03-23T11:16:28;14.30;54.20
52575;DHT22;38468;48.114;-1.684;2024-03-23T11:18:35;14.20;54.40
52575;DHT22;38468;48.114;-1.684;2024-03-23T11:20:36;14.20;53.50
52575;DHT22;38468;48.114;-1.684;2024-03-23T11:22:47;14.00;53.90
52575;DHT22;38468;48.114;-1.684;2024-03-23T11:24:50;14.10;54.80
52575;DHT22;38468;48.114;-1.684;2024-03-23T11:26:53;14.10;54.30
52575;DHT22;38468;48.114;-1.684;2024-03-23T11:29:09;13.90;52.10
52575;DHT22;38468;48.114;-1.684;2024-03-23T11:31:10;13.50;51.60
52575;DHT22;38468;48.114;-1.684;2024-03-23T11:33:12;13.50;51.80
52575;DHT22;38468;48.114;-1.684;2024-03-23T11:35:29;13.50;53.30
52575;DHT22;38468;48.114;-1.684;2024-03-23T11:37:31;13.50;53.40
52575;DHT22;38468;48.114;-1.684;2024-03-23T11:39:32;13.60;53.70
52575;DHT22;38468;48.114;-1.684;2024-03-23T11:41:32;13.70;53.70
52575;DHT22;38468;48.114;-1.684;2024-03-23T11:43:33;13.70;54.20
52575;DHT22;38468;48.114;-1.684;2024-03-23T11:45:35;13.80;54.00
52575;DHT22;38468;48.114;-1.684;2024-03-23T11:47:36;13.80;53.40
52575;DHT22;38468;48.114;-1.684;2024-03-23T11:49:37;13.90;54.30
52575;DHT22;38468;48.114;-1.684;2024-03-23T11:51:41;14.00;54.10
52575;DHT22;38468;48.114;-1.684;2024-03-23T11:53:42;14.10;54.30
52575;DHT22;38468;48.114;-1.684;2024-03-23T11:56:02;14.30;54.70
52575;DHT22;38468;48.114;-1.684;2024-03-23T11:58:03;14.40;54.10
52575;DHT22;38468;48.114;-1.684;2024-03-23T12:00:21;14.50;53.00
52575;DHT22;38468;48.114;-1.684;2024-03-23T12:02:21;14.40;52.70
52575;DHT22;38468;48.114;-1.684;2024-03-23T12:04:28;14.30;52.60
52575;DHT22;38468;48.114;-1.684;2024-03-23T12:06:29;14.20;52.80
52575;DHT22;38468;48.114;-1.684;2024-03-23T12:08:31;14.20;51.90
52575;DHT22;38468;48.114;-1.684;2024-03-23T12:10:33;14.10;52.70
52575;DHT22;38468;48.114;-1.684;2024-03-23T12:12:33;14.10;51.30
52575;DHT22;38468;48.114;-1.684;2024-03-23T12:14:34;14.00;51.90
52575;DHT22;38468;48.114;-1.684;2024-03-23T12:16:35;14.10;52.00
52575;DHT22;38468;48.114;-1.684;2024-03-23T12:18:36;14.00;51.40
52575;DHT22;38468;48.114;-1.684;2024-03-23T12:20:37;14.00;51.70
52575;DHT22;38468;48.114;-1.684;2024-03-23T12:22:38;14.00;52.00
52575;DHT22;38468;48.114;-1.684;2024-03-23T12:24:39;14.10;52.40
52575;DHT22;38468;48.114;-1.684;2024-03-23T12:26:45;14.20;52.70
52575;DHT22;38468;48.114;-1.684;2024-03-23T12:28:48;14.20;51.80
52575;DHT22;38468;48.114;-1.684;2024-03-23T12:30:49;14.20;52.20
52575;DHT22;38468;48.114;-1.684;2024-03-23T12:32:49;14.30;51.50
52575;DHT22;38468;48.114;-1.684;2024-03-23T12:34:50;14.30;51.00
52575;DHT22;38468;48.114;-1.684;2024-03-23T12:36:50;14.20;51.10
52575;DHT22;38468;48.114;-1.684;2024-03-23T12:38:51;14.10;51.30
52575;DHT22;38468;48.114;-1.684;2024-03-23T12:40:52;14.10;51.90
52575;DHT22;38468;48.114;-1.684;2024-03-23T12:42:52;14.10;52.00
52575;DHT22;38468;48.114;-1.684;2024-03-23T12:44:53;14.10;52.20
52575;DHT22;38468;48.114;-1.684;2024-03-23T12:46:54;13.90;52.10
52575;DHT22;38468;48.114;-1.684;2024-03-23T12:48:54;13.80;52.60
52575;DHT22;38468;48.114;-1.684;2024-03-23T12:50:55;14.00;53.30
52575;DHT22;38468;48.114;-1.684;2024-03-23T12:52:56;14.10;53.50
52575;DHT22;38468;48.114;-1.684;2024-03-23T12:54:56;14.40;53.80
52575;DHT22;38468;48.114;-1.684;2024-03-23T12:56:57;14.60;54.20
52575;DHT22;38468;48.114;-1.684;2024-03-23T12:58:58;14.80;53.90
52575;DHT22;38468;48.114;-1.684;2024-03-23T13:00:59;14.90;53.40
52575;DHT22;38468;48.114;-1.684;2024-03-23T13:02:59;15.00;53.40
52575;DHT22;38468;48.114;-1.684;2024-03-23T13:05:00;15.00;53.20
52575;DHT22;38468;48.114;-1.684;2024-03-23T13:07:01;15.00;52.90
52575;DHT22;38468;48.114;-1.684;2024-03-23T13:09:02;15.00;52.60
52575;DHT22;38468;48.114;-1.684;2024-03-23T13:11:06;14.90;52.50
52575;DHT22;38468;48.114;-1.684;2024-03-23T13:13:09;14.90;52.60
52575;DHT22;38468;48.114;-1.684;2024-03-23T13:15:09;14.90;52.80
52575;DHT22;38468;48.114;-1.684;2024-03-23T13:17:10;14.90;51.30
52575;DHT22;38468;48.114;-1.684;2024-03-23T13:19:11;14.80;51.60
52575;DHT22;38468;48.114;-1.684;2024-03-23T13:21:11;14.60;50.80
52575;DHT22;38468;48.114;-1.684;2024-03-23T13:23:12;14.30;50.00
52575;DHT22;38468;48.114;-1.684;2024-03-23T13:25:13;14.00;50.60
52575;DHT22;38468;48.114;-1.684;2024-03-23T13:27:14;13.70;51.10
52575;DHT22;38468;48.114;-1.684;2024-03-23T13:29:14;13.50;51.70
52575;DHT22;38468;48.114;-1.684;2024-03-23T13:31:15;13.40;52.20
52575;DHT22;38468;48.114;-1.684;2024-03-23T13:33:16;13.40;52.40
52575;DHT22;38468;48.114;-1.684;2024-03-23T13:35:17;13.40;52.50
52575;DHT22;38468;48.114;-1.684;2024-03-23T13:37:17;13.40;52.60
52575;DHT22;38468;48.114;-1.684;2024-03-23T13:39:18;13.50;52.60